sensor_id;sensor_type;location;lat;lon;timestamp;P1;durP1;ratioP1;P2;durP2;ratioP2
70829;SDS011;58451;51.550;7.208;2022-10-10T00:01:29;9.70;;;3.90;;
70829;SDS011;58451;51.550;7.208;2022-10-10T00:05:58;11.70;;;4.90;;
70829;SDS011;58451;51.550;7.208;2022-10-10T00:08:25;11.20;;;4.30;;
70829;SDS011;58451;51.550;7.208;2022-10-10T00:10:52;11.30;;;4.10;;
70829;SDS011;58451;51.550;7.208;2022-10-10T00:13:19;10.10;;;3.90;;
70829;SDS011;58451;51.550;7.208;2022-10-10T00:15:46;9.60;;;4.00;;
70829;SDS011;58451;51.550;7.208;2022-10-10T00:18:14;10.90;;;4.30;;
70829;SDS011;58451;51.550;7.208;2022-10-10T00:20:42;10.60;;;4.50;;
70829;SDS011;58451;51.550;7.208;2022-10-10T00:23:09;10.90;;;4.50;;
70829;SDS011;58451;51.550;7.208;2022-10-10T00:25:36;11.40;;;3.80;;
70829;SDS011;58451;51.550;7.208;2022-10-10T00:28:03;10.00;;;4.20;;
70829;SDS011;58451;51.550;7.208;2022-10-10T00:30:31;11.90;;;4.30;;
70829;SDS011;58451;51.550;7.208;2022-10-10T00:32:58;10.80;;;4.40;;
70829;SDS011;58451;51.550;7.208;2022-10-10T00:35:26;11.00;;;4.20;;
70829;SDS011;58451;51.550;7.208;2022-10-10T00:37:54;11.20;;;4.50;;
70829;SDS011;58451;51.550;7.208;2022-10-10T00:40:21;11.30;;;4.10;;
70829;SDS011;58451;51.550;7.208;2022-10-10T00:42:49;10.50;;;4.10;;
70829;SDS011;58451;51.550;7.208;2022-10-10T00:48:08;11.60;;;4.40;;
70829;SDS011;58451;51.550;7.208;2022-10-10T00:50:40;11.00;;;4.00;;
70829;SDS011;58451;51.550;7.208;2022-10-10T00:53:17;11.90;;;4.70;;
70829;SDS011;58451;51.550;7.208;2022-10-10T00:55:47;12.40;;;4.80;;
70829;SDS011;58451;51.550;7.208;2022-10-10T00:58:15;14.10;;;5.00;;
70829;SDS011;58451;51.550;7.208;2022-10-10T01:00:42;13.00;;;4.60;;
70829;SDS011;58451;51.550;7.208;2022-10-10T01:03:10;12.40;;;4.50;;
70829;SDS011;58451;51.550;7.208;2022-10-10T01:05:37;11.50;;;4.80;;
70829;SDS011;58451;51.550;7.208;2022-10-10T01:08:06;12.70;;;4.50;;
70829;SDS011;58451;51.550;7.208;2022-10-10T01:10:40;11.60;;;4.50;;
70829;SDS011;58451;51.550;7.208;2022-10-10T02:11:59;9.60;;;3.70;;
70829;SDS011;58451;51.550;7.208;2022-10-10T02:14:32;9.50;;;3.20;;
70829;SDS011;58451;51.550;7.208;2022-10-10T02:17:07;9.20;;;3.60;;
70829;SDS011;58451;51.550;7.208;2022-10-10T02:19:43;9.60;;;3.40;;
70829;SDS011;58451;51.550;7.208;2022-10-10T02:22:14;10.50;;;3.70;;
70829;SDS011;58451;51.550;7.208;2022-10-10T02:24:41;9.40;;;3.00;;
70829;SDS011;58451;51.550;7.208;2022-10-10T02:27:18;10.60;;;3.30;;
70829;SDS011;58451;51.550;7.208;2022-10-10T02:29:52;10.50;;;3.60;;
70829;SDS011;58451;51.550;7.208;2022-10-10T02:32:46;11.10;;;3.40;;
70829;SDS011;58451;51.550;7.208;2022-10-10T02:35:24;8.70;;;3.30;;
70829;SDS011;58451;51.550;7.208;2022-10-10T02:37:57;9.60;;;3.10;;
70829;SDS011;58451;51.550;7.208;2022-10-10T02:40:29;10.90;;;3.70;;
70829;SDS011;58451;51.550;7.208;2022-10-10T02:43:00;10.10;;;3.40;;
70829;SDS011;58451;51.550;7.208;2022-10-10T02:45:31;9.90;;;3.20;;
70829;SDS011;58451;51.550;7.208;2022-10-10T02:48:00;11.40;;;3.20;;
70829;SDS011;58451;51.550;7.208;2022-10-10T02:50:28;13.20;;;3.50;;
70829;SDS011;58451;51.550;7.208;2022-10-10T02:52:55;9.80;;;3.20;;
70829;SDS011;58451;51.550;7.208;2022-10-10T02:55:23;11.70;;;3.80;;
70829;SDS011;58451;51.550;7.208;2022-10-10T02:57:50;8.00;;;2.90;;
70829;SDS011;58451;51.550;7.208;2022-10-10T03:00:17;9.40;;;3.20;;
70829;SDS011;58451;51.550;7.208;2022-10-10T03:02:45;11.00;;;3.40;;
70829;SDS011;58451;51.550;7.208;2022-10-10T03:05:12;9.20;;;3.20;;
70829;SDS011;58451;51.550;7.208;2022-10-10T03:07:39;9.50;;;3.30;;
70829;SDS011;58451;51.550;7.208;2022-10-10T03:10:06;12.60;;;3.50;;
70829;SDS011;58451;51.550;7.208;2022-10-10T03:12:33;11.50;;;3.90;;
70829;SDS011;58451;51.550;7.208;2022-10-10T03:15:01;11.00;;;3.30;;
70829;SDS011;58451;51.550;7.208;2022-10-10T03:17:27;10.20;;;3.20;;
70829;SDS011;58451;51.550;7.208;2022-10-10T03:19:54;10.90;;;3.20;;
70829;SDS011;58451;51.550;7.208;2022-10-10T03:22:21;10.20;;;3.30;;
70829;SDS011;58451;51.550;7.208;2022-10-10T03:24:48;9.70;;;3.50;;
70829;SDS011;58451;51.550;7.208;2022-10-10T03:27:14;9.00;;;3.20;;
70829;SDS011;58451;51.550;7.208;2022-10-10T03:29:41;11.30;;;3.40;;
70829;SDS011;58451;51.550;7.208;2022-10-10T03:32:08;12.40;;;3.60;;
70829;SDS011;58451;51.550;7.208;2022-10-10T03:34:36;11.60;;;3.50;;
70829;SDS011;58451;51.550;7.208;2022-10-10T03:37:03;11.80;;;3.60;;
70829;SDS011;58451;51.550;7.208;2022-10-10T03:39:30;13.50;;;4.00;;
70829;SDS011;58451;51.550;7.208;2022-10-10T03:41:56;11.70;;;3.60;;
70829;SDS011;58451;51.550;7.208;2022-10-10T03:44:23;11.80;;;3.40;;
70829;SDS011;58451;51.550;7.208;2022-10-10T03:46:50;13.50;;;4.10;;
70829;SDS011;58451;51.550;7.208;2022-10-10T03:49:18;11.70;;;3.90;;
70829;SDS011;58451;51.550;7.208;2022-10-10T03:51:44;12.80;;;4.00;;
70829;SDS011;58451;51.550;7.208;2022-10-10T03:54:11;13.00;;;4.00;;
70829;SDS011;58451;51.550;7.208;2022-10-10T03:56:38;14.00;;;4.00;;
70829;SDS011;58451;51.550;7.208;2022-10-10T03:59:05;16.60;;;4.00;;
70829;SDS011;58451;51.550;7.208;2022-10-10T04:01:32;13.10;;;3.80;;
70829;SDS011;58451;51.550;7.208;2022-10-10T04:03:59;13.60;;;3.80;;
70829;SDS011;58451;51.550;7.208;2022-10-10T04:06:26;15.90;;;3.90;;
70829;SDS011;58451;51.550;7.208;2022-10-10T04:08:53;12.10;;;3.60;;
70829;SDS011;58451;51.550;7.208;2022-10-10T04:11:20;14.10;;;4.50;;
70829;SDS011;58451;51.550;7.208;2022-10-10T04:13:47;13.00;;;4.20;;
70829;SDS011;58451;51.550;7.208;2022-10-10T04:16:14;16.00;;;4.20;;
70829;SDS011;58451;51.550;7.208;2022-10-10T04:18:40;13.60;;;3.70;;
70829;SDS011;58451;51.550;7.208;2022-10-10T04:21:08;12.20;;;3.80;;
70829;SDS011;58451;51.550;7.208;2022-10-10T04:23:35;14.30;;;4.40;;
70829;SDS011;58451;51.550;7.208;2022-10-10T04:26:02;14.20;;;4.00;;
70829;SDS011;58451;51.550;7.208;2022-10-10T04:28:28;15.70;;;3.50;;
70829;SDS011;58451;51.550;7.208;2022-10-10T04:30:55;16.90;;;4.40;;
70829;SDS011;58451;51.550;7.208;2022-10-10T04:33:22;15.70;;;4.10;;
70829;SDS011;58451;51.550;7.208;2022-10-10T04:35:49;12.10;;;3.50;;
70829;SDS011;58451;51.550;7.208;2022-10-10T04:38:16;11.10;;;3.70;;
70829;SDS011;58451;51.550;7.208;2022-10-10T04:40:47;13.10;;;4.00;;
70829;SDS011;58451;51.550;7.208;2022-10-10T04:43:17;12.60;;;3.90;;
70829;SDS011;58451;51.550;7.208;2022-10-10T04:45:44;14.00;;;3.50;;
70829;SDS011;58451;51.550;7.208;2022-10-10T04:48:11;12.20;;;3.70;;
70829;SDS011;58451;51.550;7.208;2022-10-10T04:50:38;11.50;;;3.70;;
70829;SDS011;58451;51.550;7.208;2022-10-10T04:53:05;12.70;;;3.70;;
70829;SDS011;58451;51.550;7.208;2022-10-10T04:55:33;13.20;;;3.80;;
70829;SDS011;58451;51.550;7.208;2022-10-10T04:58:00;10.60;;;3.70;;
70829;SDS011;58451;51.550;7.208;2022-10-10T05:00:27;10.50;;;3.40;;
70829;SDS011;58451;51.550;7.208;2022-10-10T05:02:53;13.00;;;3.70;;
70829;SDS011;58451;51.550;7.208;2022-10-10T05:05:20;10.90;;;3.50;;
70829;SDS011;58451;51.550;7.208;2022-10-10T05:07:47;16.80;;;4.40;;
70829;SDS011;58451;51.550;7.208;2022-10-10T05:10:20;12.50;;;3.60;;
70829;SDS011;58451;51.550;7.208;2022-10-10T05:12:47;11.90;;;3.60;;
70829;SDS011;58451;51.550;7.208;2022-10-10T05:15:17;10.30;;;3.60;;
70829;SDS011;58451;51.550;7.208;2022-10-10T05:17:44;12.50;;;3.70;;
70829;SDS011;58451;51.550;7.208;2022-10-10T05:20:11;12.70;;;3.80;;
70829;SDS011;58451;51.550;7.208;2022-10-10T05:22:38;12.10;;;3.50;;
70829;SDS011;58451;51.550;7.208;2022-10-10T05:25:06;11.10;;;3.60;;
70829;SDS011;58451;51.550;7.208;2022-10-10T05:27:33;9.80;;;3.50;;
70829;SDS011;58451;51.550;7.208;2022-10-10T05:30:00;15.10;;;3.70;;
70829;SDS011;58451;51.550;7.208;2022-10-10T05:32:27;10.50;;;3.10;;
70829;SDS011;58451;51.550;7.208;2022-10-10T05:34:54;26.70;;;4.00;;
70829;SDS011;58451;51.550;7.208;2022-10-10T05:37:21;12.60;;;3.40;;
70829;SDS011;58451;51.550;7.208;2022-10-10T05:39:47;11.90;;;3.20;;
70829;SDS011;58451;51.550;7.208;2022-10-10T05:42:19;11.20;;;3.30;;
70829;SDS011;58451;51.550;7.208;2022-10-10T05:44:46;8.60;;;3.00;;
70829;SDS011;58451;51.550;7.208;2022-10-10T05:47:13;10.10;;;3.30;;
70829;SDS011;58451;51.550;7.208;2022-10-10T05:49:41;7.40;;;2.60;;
70829;SDS011;58451;51.550;7.208;2022-10-10T05:54:11;10.50;;;2.90;;
70829;SDS011;58451;51.550;7.208;2022-10-10T05:56:51;11.20;;;3.30;;
70829;SDS011;58451;51.550;7.208;2022-10-10T05:59:21;9.70;;;3.60;;
70829;SDS011;58451;51.550;7.208;2022-10-10T06:01:48;12.60;;;3.00;;
70829;SDS011;58451;51.550;7.208;2022-10-10T06:04:17;10.20;;;3.30;;
70829;SDS011;58451;51.550;7.208;2022-10-10T06:06:49;9.80;;;2.80;;
70829;SDS011;58451;51.550;7.208;2022-10-10T06:09:18;12.20;;;3.40;;
70829;SDS011;58451;51.550;7.208;2022-10-10T06:11:45;10.30;;;3.10;;
70829;SDS011;58451;51.550;7.208;2022-10-10T06:14:12;13.60;;;4.60;;
70829;SDS011;58451;51.550;7.208;2022-10-10T06:16:40;14.60;;;5.20;;
70829;SDS011;58451;51.550;7.208;2022-10-10T06:19:09;14.00;;;4.40;;
70829;SDS011;58451;51.550;7.208;2022-10-10T06:21:40;15.40;;;4.30;;
70829;SDS011;58451;51.550;7.208;2022-10-10T06:24:07;14.20;;;4.00;;
70829;SDS011;58451;51.550;7.208;2022-10-10T06:26:36;11.70;;;4.10;;
70829;SDS011;58451;51.550;7.208;2022-10-10T06:29:03;13.60;;;4.70;;
70829;SDS011;58451;51.550;7.208;2022-10-10T06:31:30;13.50;;;4.30;;
70829;SDS011;58451;51.550;7.208;2022-10-10T06:33:57;15.80;;;4.20;;
70829;SDS011;58451;51.550;7.208;2022-10-10T06:36:27;17.00;;;4.40;;
70829;SDS011;58451;51.550;7.208;2022-10-10T06:38:54;12.00;;;4.00;;
70829;SDS011;58451;51.550;7.208;2022-10-10T06:41:22;14.10;;;3.80;;
70829;SDS011;58451;51.550;7.208;2022-10-10T06:43:49;11.80;;;3.30;;
70829;SDS011;58451;51.550;7.208;2022-10-10T06:46:19;14.90;;;3.50;;
70829;SDS011;58451;51.550;7.208;2022-10-10T06:48:45;9.60;;;3.20;;
70829;SDS011;58451;51.550;7.208;2022-10-10T06:51:14;8.60;;;2.70;;
70829;SDS011;58451;51.550;7.208;2022-10-10T06:53:44;10.70;;;3.40;;
70829;SDS011;58451;51.550;7.208;2022-10-10T06:56:14;11.30;;;3.50;;
70829;SDS011;58451;51.550;7.208;2022-10-10T06:58:53;6.80;;;2.50;;
70829;SDS011;58451;51.550;7.208;2022-10-10T07:01:23;7.80;;;2.50;;
70829;SDS011;58451;51.550;7.208;2022-10-10T07:03:51;7.90;;;2.50;;
70829;SDS011;58451;51.550;7.208;2022-10-10T07:06:23;7.70;;;2.50;;
70829;SDS011;58451;51.550;7.208;2022-10-10T07:08:50;5.30;;;1.30;;
70829;SDS011;58451;51.550;7.208;2022-10-10T07:11:17;6.90;;;1.70;;
70829;SDS011;58451;51.550;7.208;2022-10-10T07:13:44;6.10;;;1.70;;
70829;SDS011;58451;51.550;7.208;2022-10-10T07:16:11;4.40;;;1.50;;
70829;SDS011;58451;51.550;7.208;2022-10-10T07:18:42;6.40;;;2.20;;
70829;SDS011;58451;51.550;7.208;2022-10-10T07:21:14;7.10;;;1.80;;
70829;SDS011;58451;51.550;7.208;2022-10-10T07:23:41;8.30;;;2.20;;
70829;SDS011;58451;51.550;7.208;2022-10-10T07:26:12;7.10;;;1.80;;
70829;SDS011;58451;51.550;7.208;2022-10-10T07:28:44;7.70;;;2.10;;
70829;SDS011;58451;51.550;7.208;2022-10-10T07:31:11;7.30;;;1.80;;
70829;SDS011;58451;51.550;7.208;2022-10-10T07:33:44;6.20;;;2.10;;
70829;SDS011;58451;51.550;7.208;2022-10-10T07:36:17;7.10;;;2.20;;
70829;SDS011;58451;51.550;7.208;2022-10-10T07:38:49;7.60;;;2.00;;
70829;SDS011;58451;51.550;7.208;2022-10-10T07:41:20;4.60;;;1.40;;
70829;SDS011;58451;51.550;7.208;2022-10-10T07:43:54;5.90;;;1.70;;
70829;SDS011;58451;51.550;7.208;2022-10-10T07:46:23;7.60;;;1.90;;
70829;SDS011;58451;51.550;7.208;2022-10-10T07:48:59;6.60;;;1.80;;
70829;SDS011;58451;51.550;7.208;2022-10-10T07:51:26;5.50;;;1.80;;
70829;SDS011;58451;51.550;7.208;2022-10-10T07:53:53;7.00;;;1.90;;
70829;SDS011;58451;51.550;7.208;2022-10-10T07:56:21;5.10;;;1.80;;
70829;SDS011;58451;51.550;7.208;2022-10-10T07:58:57;9.60;;;2.20;;
70829;SDS011;58451;51.550;7.208;2022-10-10T08:01:28;6.30;;;2.10;;
70829;SDS011;58451;51.550;7.208;2022-10-10T08:03:57;5.90;;;1.70;;
70829;SDS011;58451;51.550;7.208;2022-10-10T08:06:24;4.20;;;1.20;;
70829;SDS011;58451;51.550;7.208;2022-10-10T08:08:57;4.80;;;1.80;;
70829;SDS011;58451;51.550;7.208;2022-10-10T08:11:24;8.00;;;2.10;;
70829;SDS011;58451;51.550;7.208;2022-10-10T08:13:52;5.80;;;1.70;;
70829;SDS011;58451;51.550;7.208;2022-10-10T08:16:19;7.70;;;2.00;;
70829;SDS011;58451;51.550;7.208;2022-10-10T08:18:46;6.30;;;2.30;;
70829;SDS011;58451;51.550;7.208;2022-10-10T08:21:14;6.10;;;1.80;;
70829;SDS011;58451;51.550;7.208;2022-10-10T08:23:43;4.90;;;1.30;;
70829;SDS011;58451;51.550;7.208;2022-10-10T08:26:13;8.60;;;2.00;;
70829;SDS011;58451;51.550;7.208;2022-10-10T08:28:44;5.30;;;1.50;;
70829;SDS011;58451;51.550;7.208;2022-10-10T08:31:17;6.70;;;2.00;;
70829;SDS011;58451;51.550;7.208;2022-10-10T08:33:48;7.50;;;1.80;;
70829;SDS011;58451;51.550;7.208;2022-10-10T08:36:21;6.00;;;1.60;;
70829;SDS011;58451;51.550;7.208;2022-10-10T08:39:02;7.30;;;1.70;;
70829;SDS011;58451;51.550;7.208;2022-10-10T08:41:49;5.90;;;1.50;;
70829;SDS011;58451;51.550;7.208;2022-10-10T08:44:40;7.50;;;2.00;;
70829;SDS011;58451;51.550;7.208;2022-10-10T08:47:16;6.30;;;1.60;;
70829;SDS011;58451;51.550;7.208;2022-10-10T08:49:54;6.70;;;1.80;;
70829;SDS011;58451;51.550;7.208;2022-10-10T08:52:34;6.30;;;1.80;;
70829;SDS011;58451;51.550;7.208;2022-10-10T08:55:28;7.50;;;2.10;;
70829;SDS011;58451;51.550;7.208;2022-10-10T08:58:13;11.10;;;2.00;;
70829;SDS011;58451;51.550;7.208;2022-10-10T09:01:10;7.40;;;1.70;;
70829;SDS011;58451;51.550;7.208;2022-10-10T09:03:47;6.40;;;1.70;;
70829;SDS011;58451;51.550;7.208;2022-10-10T09:10:02;5.90;;;1.40;;
70829;SDS011;58451;51.550;7.208;2022-10-10T09:13:18;7.10;;;2.00;;
70829;SDS011;58451;51.550;7.208;2022-10-10T09:16:05;6.90;;;1.80;;
70829;SDS011;58451;51.550;7.208;2022-10-10T09:21:45;5.40;;;1.90;;
70829;SDS011;58451;51.550;7.208;2022-10-10T09:24:21;7.30;;;1.50;;
70829;SDS011;58451;51.550;7.208;2022-10-10T09:26:55;8.10;;;2.10;;
70829;SDS011;58451;51.550;7.208;2022-10-10T09:29:39;5.80;;;1.90;;
70829;SDS011;58451;51.550;7.208;2022-10-10T09:33:33;6.30;;;2.00;;
70829;SDS011;58451;51.550;7.208;2022-10-10T09:37:02;9.20;;;2.10;;
70829;SDS011;58451;51.550;7.208;2022-10-10T09:42:46;5.20;;;1.80;;
70829;SDS011;58451;51.550;7.208;2022-10-10T09:45:25;5.30;;;1.80;;
70829;SDS011;58451;51.550;7.208;2022-10-10T09:47:58;7.00;;;2.00;;
70829;SDS011;58451;51.550;7.208;2022-10-10T09:50:28;7.80;;;1.80;;
70829;SDS011;58451;51.550;7.208;2022-10-10T09:53:15;6.70;;;2.00;;
70829;SDS011;58451;51.550;7.208;2022-10-10T09:55:44;5.90;;;1.70;;
70829;SDS011;58451;51.550;7.208;2022-10-10T10:00:52;6.10;;;1.70;;
70829;SDS011;58451;51.550;7.208;2022-10-10T10:03:21;6.50;;;2.00;;
70829;SDS011;58451;51.550;7.208;2022-10-10T10:06:01;5.00;;;1.50;;
70829;SDS011;58451;51.550;7.208;2022-10-10T10:08:33;7.10;;;1.80;;
70829;SDS011;58451;51.550;7.208;2022-10-10T10:11:03;7.10;;;1.90;;
70829;SDS011;58451;51.550;7.208;2022-10-10T10:13:33;5.70;;;1.40;;
70829;SDS011;58451;51.550;7.208;2022-10-10T10:16:12;6.80;;;1.60;;
70829;SDS011;58451;51.550;7.208;2022-10-10T10:18:41;4.70;;;1.30;;
70829;SDS011;58451;51.550;7.208;2022-10-10T10:21:15;5.50;;;1.40;;
70829;SDS011;58451;51.550;7.208;2022-10-10T10:26:44;7.00;;;1.70;;
70829;SDS011;58451;51.550;7.208;2022-10-10T10:29:29;7.80;;;2.10;;
70829;SDS011;58451;51.550;7.208;2022-10-10T10:37:42;6.30;;;1.70;;
70829;SDS011;58451;51.550;7.208;2022-10-10T10:40:29;6.20;;;1.60;;
70829;SDS011;58451;51.550;7.208;2022-10-10T10:49:12;6.70;;;1.80;;
70829;SDS011;58451;51.550;7.208;2022-10-10T10:59:32;6.80;;;1.50;;
70829;SDS011;58451;51.550;7.208;2022-10-10T11:16:26;8.20;;;2.10;;
70829;SDS011;58451;51.550;7.208;2022-10-10T11:20:19;6.20;;;1.70;;
70829;SDS011;58451;51.550;7.208;2022-10-10T11:23:55;8.70;;;1.90;;
70829;SDS011;58451;51.550;7.208;2022-10-10T11:27:14;7.00;;;1.90;;
70829;SDS011;58451;51.550;7.208;2022-10-10T11:30:47;6.70;;;1.90;;
70829;SDS011;58451;51.550;7.208;2022-10-10T11:34:18;9.70;;;1.50;;
70829;SDS011;58451;51.550;7.208;2022-10-10T11:41:57;5.00;;;1.40;;
70829;SDS011;58451;51.550;7.208;2022-10-10T11:45:50;6.90;;;1.30;;
70829;SDS011;58451;51.550;7.208;2022-10-10T11:49:59;8.00;;;1.60;;
70829;SDS011;58451;51.550;7.208;2022-10-10T11:53:18;7.60;;;1.80;;
70829;SDS011;58451;51.550;7.208;2022-10-10T11:56:29;7.70;;;1.50;;
70829;SDS011;58451;51.550;7.208;2022-10-10T11:59:12;7.80;;;1.70;;
70829;SDS011;58451;51.550;7.208;2022-10-10T12:01:51;7.90;;;1.90;;
70829;SDS011;58451;51.550;7.208;2022-10-10T12:04:21;11.60;;;2.20;;
70829;SDS011;58451;51.550;7.208;2022-10-10T12:06:59;10.70;;;1.90;;
70829;SDS011;58451;51.550;7.208;2022-10-10T12:09:37;6.60;;;1.90;;
70829;SDS011;58451;51.550;7.208;2022-10-10T12:13:37;6.00;;;1.70;;
70829;SDS011;58451;51.550;7.208;2022-10-10T12:16:16;10.60;;;2.00;;
70829;SDS011;58451;51.550;7.208;2022-10-10T12:18:55;7.60;;;2.40;;
70829;SDS011;58451;51.550;7.208;2022-10-10T12:21:28;10.00;;;2.30;;
70829;SDS011;58451;51.550;7.208;2022-10-10T12:29:41;12.10;;;2.50;;
70829;SDS011;58451;51.550;7.208;2022-10-10T12:37:25;7.70;;;1.80;;
70829;SDS011;58451;51.550;7.208;2022-10-10T12:45:00;7.60;;;2.20;;
70829;SDS011;58451;51.550;7.208;2022-10-10T12:50:34;8.80;;;2.20;;
70829;SDS011;58451;51.550;7.208;2022-10-10T12:53:05;9.40;;;2.20;;
70829;SDS011;58451;51.550;7.208;2022-10-10T12:55:51;8.90;;;2.10;;
70829;SDS011;58451;51.550;7.208;2022-10-10T12:58:27;5.60;;;1.80;;
70829;SDS011;58451;51.550;7.208;2022-10-10T13:04:26;12.00;;;2.20;;
70829;SDS011;58451;51.550;7.208;2022-10-10T13:06:57;8.20;;;2.00;;
70829;SDS011;58451;51.550;7.208;2022-10-10T13:09:31;10.70;;;1.90;;
70829;SDS011;58451;51.550;7.208;2022-10-10T13:12:05;11.40;;;2.20;;
70829;SDS011;58451;51.550;7.208;2022-10-10T13:14:46;7.10;;;2.00;;
70829;SDS011;58451;51.550;7.208;2022-10-10T13:17:30;7.80;;;1.70;;
70829;SDS011;58451;51.550;7.208;2022-10-10T13:20:03;8.60;;;1.50;;
70829;SDS011;58451;51.550;7.208;2022-10-10T13:22:32;10.70;;;1.60;;
70829;SDS011;58451;51.550;7.208;2022-10-10T13:25:02;9.10;;;1.60;;
70829;SDS011;58451;51.550;7.208;2022-10-10T13:27:34;8.60;;;1.80;;
70829;SDS011;58451;51.550;7.208;2022-10-10T13:30:02;10.80;;;1.80;;
70829;SDS011;58451;51.550;7.208;2022-10-10T13:32:32;10.10;;;1.80;;
70829;SDS011;58451;51.550;7.208;2022-10-10T13:35:03;7.70;;;1.70;;
70829;SDS011;58451;51.550;7.208;2022-10-10T13:37:40;9.60;;;1.70;;
70829;SDS011;58451;51.550;7.208;2022-10-10T13:40:16;8.20;;;2.20;;
70829;SDS011;58451;51.550;7.208;2022-10-10T13:42:45;8.70;;;1.80;;
70829;SDS011;58451;51.550;7.208;2022-10-10T13:53:21;9.40;;;1.80;;
70829;SDS011;58451;51.550;7.208;2022-10-10T13:59:10;9.10;;;1.50;;
70829;SDS011;58451;51.550;7.208;2022-10-10T14:01:44;7.60;;;1.40;;
70829;SDS011;58451;51.550;7.208;2022-10-10T14:07:10;10.70;;;2.20;;
70829;SDS011;58451;51.550;7.208;2022-10-10T14:12:32;7.10;;;1.40;;
70829;SDS011;58451;51.550;7.208;2022-10-10T14:15:03;7.80;;;1.60;;
70829;SDS011;58451;51.550;7.208;2022-10-10T14:17:51;8.80;;;1.90;;
70829;SDS011;58451;51.550;7.208;2022-10-10T14:20:17;5.20;;;1.20;;
70829;SDS011;58451;51.550;7.208;2022-10-10T14:22:44;9.50;;;1.70;;
70829;SDS011;58451;51.550;7.208;2022-10-10T14:25:11;8.00;;;1.80;;
70829;SDS011;58451;51.550;7.208;2022-10-10T14:27:38;10.70;;;1.40;;
70829;SDS011;58451;51.550;7.208;2022-10-10T14:30:05;7.50;;;1.70;;
70829;SDS011;58451;51.550;7.208;2022-10-10T14:32:32;6.30;;;1.90;;
70829;SDS011;58451;51.550;7.208;2022-10-10T14:34:59;6.60;;;1.60;;
70829;SDS011;58451;51.550;7.208;2022-10-10T14:37:27;9.00;;;1.90;;
70829;SDS011;58451;51.550;7.208;2022-10-10T14:39:54;11.50;;;2.00;;
70829;SDS011;58451;51.550;7.208;2022-10-10T14:42:22;9.70;;;1.90;;
70829;SDS011;58451;51.550;7.208;2022-10-10T14:44:50;9.60;;;2.10;;
70829;SDS011;58451;51.550;7.208;2022-10-10T14:47:20;7.90;;;2.10;;
70829;SDS011;58451;51.550;7.208;2022-10-10T14:49:49;9.00;;;2.10;;
70829;SDS011;58451;51.550;7.208;2022-10-10T14:52:18;8.20;;;1.50;;
70829;SDS011;58451;51.550;7.208;2022-10-10T14:54:45;9.70;;;1.80;;
70829;SDS011;58451;51.550;7.208;2022-10-10T14:57:12;5.80;;;1.40;;
70829;SDS011;58451;51.550;7.208;2022-10-10T14:59:39;8.70;;;2.30;;
70829;SDS011;58451;51.550;7.208;2022-10-10T15:02:14;7.40;;;1.90;;
70829;SDS011;58451;51.550;7.208;2022-10-10T15:04:41;9.20;;;1.50;;
70829;SDS011;58451;51.550;7.208;2022-10-10T15:07:09;8.10;;;1.70;;
70829;SDS011;58451;51.550;7.208;2022-10-10T15:09:39;7.30;;;1.70;;
70829;SDS011;58451;51.550;7.208;2022-10-10T15:12:27;6.80;;;1.40;;
70829;SDS011;58451;51.550;7.208;2022-10-10T15:14:54;5.50;;;1.60;;
70829;SDS011;58451;51.550;7.208;2022-10-10T15:17:20;7.00;;;1.60;;
70829;SDS011;58451;51.550;7.208;2022-10-10T15:19:49;5.60;;;1.70;;
70829;SDS011;58451;51.550;7.208;2022-10-10T15:22:18;7.90;;;1.90;;
70829;SDS011;58451;51.550;7.208;2022-10-10T15:24:44;6.20;;;1.40;;
70829;SDS011;58451;51.550;7.208;2022-10-10T15:27:12;7.20;;;1.40;;
70829;SDS011;58451;51.550;7.208;2022-10-10T15:29:39;8.20;;;1.90;;
70829;SDS011;58451;51.550;7.208;2022-10-10T15:32:06;5.60;;;1.50;;
70829;SDS011;58451;51.550;7.208;2022-10-10T15:34:33;7.20;;;1.50;;
70829;SDS011;58451;51.550;7.208;2022-10-10T15:37:00;7.30;;;1.90;;
70829;SDS011;58451;51.550;7.208;2022-10-10T15:39:29;10.60;;;1.70;;
70829;SDS011;58451;51.550;7.208;2022-10-10T15:41:56;6.60;;;1.50;;
70829;SDS011;58451;51.550;7.208;2022-10-10T15:44:32;8.40;;;1.80;;
70829;SDS011;58451;51.550;7.208;2022-10-10T15:46:59;9.30;;;2.30;;
70829;SDS011;58451;51.550;7.208;2022-10-10T15:49:25;10.30;;;1.70;;
70829;SDS011;58451;51.550;7.208;2022-10-10T15:51:52;9.70;;;2.20;;
70829;SDS011;58451;51.550;7.208;2022-10-10T15:54:19;10.40;;;1.70;;
70829;SDS011;58451;51.550;7.208;2022-10-10T15:56:46;7.90;;;1.80;;
70829;SDS011;58451;51.550;7.208;2022-10-10T15:59:13;7.70;;;1.80;;
70829;SDS011;58451;51.550;7.208;2022-10-10T16:01:39;7.40;;;1.90;;
70829;SDS011;58451;51.550;7.208;2022-10-10T16:04:06;8.70;;;2.10;;
70829;SDS011;58451;51.550;7.208;2022-10-10T16:06:33;7.00;;;1.80;;
70829;SDS011;58451;51.550;7.208;2022-10-10T16:09:00;9.70;;;2.40;;
70829;SDS011;58451;51.550;7.208;2022-10-10T16:11:47;8.80;;;2.40;;
70829;SDS011;58451;51.550;7.208;2022-10-10T16:14:14;7.30;;;2.40;;
70829;SDS011;58451;51.550;7.208;2022-10-10T16:16:41;7.90;;;2.70;;
70829;SDS011;58451;51.550;7.208;2022-10-10T16:21:37;11.70;;;3.00;;
70829;SDS011;58451;51.550;7.208;2022-10-10T16:24:04;10.50;;;3.40;;
70829;SDS011;58451;51.550;7.208;2022-10-10T16:26:32;11.40;;;3.60;;
70829;SDS011;58451;51.550;7.208;2022-10-10T16:29:01;11.50;;;3.80;;
70829;SDS011;58451;51.550;7.208;2022-10-10T16:31:28;12.10;;;3.90;;
70829;SDS011;58451;51.550;7.208;2022-10-10T16:33:56;10.30;;;2.90;;
70829;SDS011;58451;51.550;7.208;2022-10-10T16:36:26;9.60;;;3.80;;
70829;SDS011;58451;51.550;7.208;2022-10-10T16:38:56;10.40;;;3.90;;
70829;SDS011;58451;51.550;7.208;2022-10-10T16:41:26;9.40;;;3.10;;
70829;SDS011;58451;51.550;7.208;2022-10-10T16:44:13;13.30;;;4.30;;
70829;SDS011;58451;51.550;7.208;2022-10-10T16:46:40;9.00;;;3.40;;
70829;SDS011;58451;51.550;7.208;2022-10-10T16:49:10;11.20;;;3.90;;
70829;SDS011;58451;51.550;7.208;2022-10-10T16:51:38;11.30;;;4.20;;
70829;SDS011;58451;51.550;7.208;2022-10-10T16:54:06;9.80;;;3.70;;
70829;SDS011;58451;51.550;7.208;2022-10-10T16:58:31;11.30;;;3.60;;
70829;SDS011;58451;51.550;7.208;2022-10-10T17:00:59;13.40;;;4.50;;
70829;SDS011;58451;51.550;7.208;2022-10-10T17:03:31;9.20;;;3.50;;
70829;SDS011;58451;51.550;7.208;2022-10-10T17:06:07;7.90;;;3.60;;
70829;SDS011;58451;51.550;7.208;2022-10-10T17:08:41;11.80;;;3.60;;
70829;SDS011;58451;51.550;7.208;2022-10-10T17:11:10;14.30;;;3.70;;
70829;SDS011;58451;51.550;7.208;2022-10-10T17:13:37;11.70;;;4.30;;
70829;SDS011;58451;51.550;7.208;2022-10-10T17:16:07;10.40;;;3.80;;
70829;SDS011;58451;51.550;7.208;2022-10-10T17:18:56;10.10;;;3.40;;
70829;SDS011;58451;51.550;7.208;2022-10-10T17:21:25;11.40;;;4.00;;
70829;SDS011;58451;51.550;7.208;2022-10-10T17:23:52;6.60;;;2.10;;
70829;SDS011;58451;51.550;7.208;2022-10-10T17:26:21;4.90;;;1.30;;
70829;SDS011;58451;51.550;7.208;2022-10-10T17:28:49;3.10;;;1.00;;
70829;SDS011;58451;51.550;7.208;2022-10-10T17:31:16;2.80;;;0.70;;
70829;SDS011;58451;51.550;7.208;2022-10-10T17:33:44;2.30;;;0.50;;
70829;SDS011;58451;51.550;7.208;2022-10-10T17:36:21;3.30;;;0.80;;
70829;SDS011;58451;51.550;7.208;2022-10-10T17:38:50;2.20;;;0.60;;
70829;SDS011;58451;51.550;7.208;2022-10-10T17:41:19;2.90;;;0.80;;
70829;SDS011;58451;51.550;7.208;2022-10-10T17:43:46;4.60;;;1.00;;
70829;SDS011;58451;51.550;7.208;2022-10-10T17:46:16;4.60;;;1.00;;
70829;SDS011;58451;51.550;7.208;2022-10-10T17:49:05;6.00;;;0.70;;
70829;SDS011;58451;51.550;7.208;2022-10-10T17:51:34;6.90;;;0.60;;
70829;SDS011;58451;51.550;7.208;2022-10-10T17:54:03;6.70;;;0.80;;
70829;SDS011;58451;51.550;7.208;2022-10-10T17:56:32;6.80;;;0.80;;
70829;SDS011;58451;51.550;7.208;2022-10-10T17:58:59;3.80;;;0.60;;
70829;SDS011;58451;51.550;7.208;2022-10-10T18:01:27;7.50;;;0.60;;